sensor_id;sensor_type;location;lat;lon;timestamp;temperature;humidity
72604;DHT22;60645;56.968;24.196;2023-03-01T00:01:08;1.20;92.40
72604;DHT22;60645;56.968;24.196;2023-03-01T00:03:35;1.30;92.30
72604;DHT22;60645;56.968;24.196;2023-03-01T00:06:03;1.20;92.30
72604;DHT22;60645;56.968;24.196;2023-03-01T00:08:31;1.30;92.00
72604;DHT22;60645;56.968;24.196;2023-03-01T00:13:29;1.40;91.30
72604;DHT22;60645;56.968;24.196;2023-03-01T00:15:56;1.30;91.20
72604;DHT22;60645;56.968;24.196;2023-03-01T00:18:23;1.30;91.20
72604;DHT22;60645;56.968;24.196;2023-03-01T00:20:53;1.30;91.20
72604;DHT22;60645;56.968;24.196;2023-03-01T00:23:21;1.40;91.10
72604;DHT22;60645;56.968;24.196;2023-03-01T00:25:49;1.30;91.20
72604;DHT22;60645;56.968;24.196;2023-03-01T00:28:17;1.20;91.30
72604;DHT22;60645;56.968;24.196;2023-03-01T00:30:44;1.40;91.00
72604;DHT22;60645;56.968;24.196;2023-03-01T00:33:11;1.30;90.40
72604;DHT22;60645;56.968;24.196;2023-03-01T00:35:38;1.30;90.00
72604;DHT22;60645;56.968;24.196;2023-03-01T00:38:05;1.30;89.60
72604;DHT22;60645;56.968;24.196;2023-03-01T00:40:34;1.50;89.70
72604;DHT22;60645;56.968;24.196;2023-03-01T00:43:02;1.20;89.60
72604;DHT22;60645;56.968;24.196;2023-03-01T00:45:29;1.30;89.30
72604;DHT22;60645;56.968;24.196;2023-03-01T00:47:58;1.30;89.50
72604;DHT22;60645;56.968;24.196;2023-03-01T00:50:25;1.30;89.80
72604;DHT22;60645;56.968;24.196;2023-03-01T00:52:55;1.30;90.00
72604;DHT22;60645;56.968;24.196;2023-03-01T00:55:23;1.20;90.20
72604;DHT22;60645;56.968;24.196;2023-03-01T00:57:51;1.20;90.30
72604;DHT22;60645;56.968;24.196;2023-03-01T01:00:19;1.10;90.60
72604;DHT22;60645;56.968;24.196;2023-03-01T01:02:46;1.10;91.00
72604;DHT22;60645;56.968;24.196;2023-03-01T01:05:14;1.20;91.30
72604;DHT22;60645;56.968;24.196;2023-03-01T01:07:41;1.30;91.30
72604;DHT22;60645;56.968;24.196;2023-03-01T01:10:08;1.40;91.30
72604;DHT22;60645;56.968;24.196;2023-03-01T01:12:39;1.30;91.60
72604;DHT22;60645;56.968;24.196;2023-03-01T01:15:06;1.20;91.50
72604;DHT22;60645;56.968;24.196;2023-03-01T01:17:33;1.30;91.70
72604;DHT22;60645;56.968;24.196;2023-03-01T01:20:00;1.20;92.00
72604;DHT22;60645;56.968;24.196;2023-03-01T01:22:27;1.20;92.20
72604;DHT22;60645;56.968;24.196;2023-03-01T01:24:54;1.10;92.40
72604;DHT22;60645;56.968;24.196;2023-03-01T01:27:21;1.40;92.50
72604;DHT22;60645;56.968;24.196;2023-03-01T01:29:47;1.30;93.00
72604;DHT22;60645;56.968;24.196;2023-03-01T01:32:14;1.30;93.10
72604;DHT22;60645;56.968;24.196;2023-03-01T01:34:41;1.40;93.80
72604;DHT22;60645;56.968;24.196;2023-03-01T01:37:08;1.30;93.90
72604;DHT22;60645;56.968;24.196;2023-03-01T01:39:35;1.30;94.20
72604;DHT22;60645;56.968;24.196;2023-03-01T01:42:02;1.30;94.40
72604;DHT22;60645;56.968;24.196;2023-03-01T01:44:29;1.40;94.40
72604;DHT22;60645;56.968;24.196;2023-03-01T01:47:05;1.20;94.50
72604;DHT22;60645;56.968;24.196;2023-03-01T01:49:37;1.20;94.70
72604;DHT22;60645;56.968;24.196;2023-03-01T01:52:27;1.20;94.80
72604;DHT22;60645;56.968;24.196;2023-03-01T01:55:12;1.30;94.70
72604;DHT22;60645;56.968;24.196;2023-03-01T01:57:53;1.40;94.60
72604;DHT22;60645;56.968;24.196;2023-03-01T02:00:26;1.20;94.40
72604;DHT22;60645;56.968;24.196;2023-03-01T02:03:10;1.10;94.50
72604;DHT22;60645;56.968;24.196;2023-03-01T02:08:23;1.10;94.20
72604;DHT22;60645;56.968;24.196;2023-03-01T02:10:51;1.00;94.30
72604;DHT22;60645;56.968;24.196;2023-03-01T02:13:19;1.20;94.20
72604;DHT22;60645;56.968;24.196;2023-03-01T02:15:46;1.10;94.20
72604;DHT22;60645;56.968;24.196;2023-03-01T02:18:17;1.20;94.30
72604;DHT22;60645;56.968;24.196;2023-03-01T02:23:40;1.10;94.30
72604;DHT22;60645;56.968;24.196;2023-03-01T02:26:11;1.10;94.60
72604;DHT22;60645;56.968;24.196;2023-03-01T02:28:44;1.10;94.50
72604;DHT22;60645;56.968;24.196;2023-03-01T02:31:16;1.00;94.70
72604;DHT22;60645;56.968;24.196;2023-03-01T02:34:02;1.10;94.80
72604;DHT22;60645;56.968;24.196;2023-03-01T02:36:48;0.90;94.80
72604;DHT22;60645;56.968;24.196;2023-03-01T02:39:24;1.30;94.60
72604;DHT22;60645;56.968;24.196;2023-03-01T02:41:54;1.10;94.80
72604;DHT22;60645;56.968;24.196;2023-03-01T02:44:23;1.00;94.80
72604;DHT22;60645;56.968;24.196;2023-03-01T02:46:53;1.10;94.90
72604;DHT22;60645;56.968;24.196;2023-03-01T02:49:33;1.00;95.10
72604;DHT22;60645;56.968;24.196;2023-03-01T02:52:05;1.00;95.00
72604;DHT22;60645;56.968;24.196;2023-03-01T02:54:42;0.90;95.40
72604;DHT22;60645;56.968;24.196;2023-03-01T02:57:11;1.00;95.40
72604;DHT22;60645;56.968;24.196;2023-03-01T02:59:39;1.10;95.40
72604;DHT22;60645;56.968;24.196;2023-03-01T03:02:24;1.10;95.30
72604;DHT22;60645;56.968;24.196;2023-03-01T03:05:19;1.10;95.20
72604;DHT22;60645;56.968;24.196;2023-03-01T03:07:48;1.30;94.90
72604;DHT22;60645;56.968;24.196;2023-03-01T03:10:23;1.20;95.10
72604;DHT22;60645;56.968;24.196;2023-03-01T03:12:55;1.30;95.00
72604;DHT22;60645;56.968;24.196;2023-03-01T03:15:23;1.40;95.00
72604;DHT22;60645;56.968;24.196;2023-03-01T03:17:51;1.20;95.00
72604;DHT22;60645;56.968;24.196;2023-03-01T03:20:21;1.10;95.10
72604;DHT22;60645;56.968;24.196;2023-03-01T03:22:51;1.30;95.20
72604;DHT22;60645;56.968;24.196;2023-03-01T03:25:19;1.30;95.00
72604;DHT22;60645;56.968;24.196;2023-03-01T03:27:48;1.30;95.00
72604;DHT22;60645;56.968;24.196;2023-03-01T03:30:18;1.50;94.70
72604;DHT22;60645;56.968;24.196;2023-03-01T03:32:47;1.40;94.70
72604;DHT22;60645;56.968;24.196;2023-03-01T03:37:51;1.50;94.70
72604;DHT22;60645;56.968;24.196;2023-03-01T03:40:34;1.40;94.60
72604;DHT22;60645;56.968;24.196;2023-03-01T03:43:07;1.40;94.60
72604;DHT22;60645;56.968;24.196;2023-03-01T03:45:34;1.50;94.70
72604;DHT22;60645;56.968;24.196;2023-03-01T03:48:04;1.60;94.60
72604;DHT22;60645;56.968;24.196;2023-03-01T03:50:32;1.50;94.60
72604;DHT22;60645;56.968;24.196;2023-03-01T03:53:04;1.50;94.50
72604;DHT22;60645;56.968;24.196;2023-03-01T03:55:32;1.70;94.70
72604;DHT22;60645;56.968;24.196;2023-03-01T03:58:02;1.70;94.80
72604;DHT22;60645;56.968;24.196;2023-03-01T04:00:35;1.60;94.70
72604;DHT22;60645;56.968;24.196;2023-03-01T04:03:03;1.60;94.60
72604;DHT22;60645;56.968;24.196;2023-03-01T04:05:31;1.70;94.50
72604;DHT22;60645;56.968;24.196;2023-03-01T04:07:58;1.70;94.40
72604;DHT22;60645;56.968;24.196;2023-03-01T04:10:39;1.70;94.40
72604;DHT22;60645;56.968;24.196;2023-03-01T04:13:07;1.60;94.50
72604;DHT22;60645;56.968;24.196;2023-03-01T04:15:35;1.60;94.50
72604;DHT22;60645;56.968;24.196;2023-03-01T04:18:03;1.70;94.30
72604;DHT22;60645;56.968;24.196;2023-03-01T04:20:32;1.70;94.50
72604;DHT22;60645;56.968;24.196;2023-03-01T04:23:04;1.50;94.50
72604;DHT22;60645;56.968;24.196;2023-03-01T04:26:00;1.80;94.10
72604;DHT22;60645;56.968;24.196;2023-03-01T04:28:34;1.70;94.30
72604;DHT22;60645;56.968;24.196;2023-03-01T04:31:06;1.70;94.10
72604;DHT22;60645;56.968;24.196;2023-03-01T04:36:11;1.80;94.00
72604;DHT22;60645;56.968;24.196;2023-03-01T04:38:38;1.60;93.90
72604;DHT22;60645;56.968;24.196;2023-03-01T04:41:08;1.70;94.00
72604;DHT22;60645;56.968;24.196;2023-03-01T04:43:35;1.80;94.00
72604;DHT22;60645;56.968;24.196;2023-03-01T04:46:04;1.90;93.90
72604;DHT22;60645;56.968;24.196;2023-03-01T04:48:32;1.90;93.90
72604;DHT22;60645;56.968;24.196;2023-03-01T04:51:00;1.80;93.80
72604;DHT22;60645;56.968;24.196;2023-03-01T04:53:27;1.70;93.80
72604;DHT22;60645;56.968;24.196;2023-03-01T04:55:55;2.00;94.00
72604;DHT22;60645;56.968;24.196;2023-03-01T04:58:23;1.80;94.00
72604;DHT22;60645;56.968;24.196;2023-03-01T05:00:51;1.80;93.80
72604;DHT22;60645;56.968;24.196;2023-03-01T05:03:17;1.80;93.70
72604;DHT22;60645;56.968;24.196;2023-03-01T05:05:46;1.80;93.70
72604;DHT22;60645;56.968;24.196;2023-03-01T05:08:14;1.80;93.20
72604;DHT22;60645;56.968;24.196;2023-03-01T05:10:45;2.10;92.90
72604;DHT22;60645;56.968;24.196;2023-03-01T05:13:14;1.80;92.70
72604;DHT22;60645;56.968;24.196;2023-03-01T05:15:58;1.90;92.60
72604;DHT22;60645;56.968;24.196;2023-03-01T05:18:27;2.00;92.60
72604;DHT22;60645;56.968;24.196;2023-03-01T05:20:56;2.00;92.30
72604;DHT22;60645;56.968;24.196;2023-03-01T05:23:27;1.90;92.00
72604;DHT22;60645;56.968;24.196;2023-03-01T05:25:57;2.10;92.30
72604;DHT22;60645;56.968;24.196;2023-03-01T05:28:25;2.00;91.60
72604;DHT22;60645;56.968;24.196;2023-03-01T05:30:52;2.10;91.40
72604;DHT22;60645;56.968;24.196;2023-03-01T05:33:19;2.20;91.40
72604;DHT22;60645;56.968;24.196;2023-03-01T05:35:49;2.20;91.40
72604;DHT22;60645;56.968;24.196;2023-03-01T05:38:17;2.00;91.40
72604;DHT22;60645;56.968;24.196;2023-03-01T05:40:45;2.00;91.50
72604;DHT22;60645;56.968;24.196;2023-03-01T05:43:15;2.10;91.40
72604;DHT22;60645;56.968;24.196;2023-03-01T05:45:42;2.20;91.70
72604;DHT22;60645;56.968;24.196;2023-03-01T05:48:10;2.00;91.80
72604;DHT22;60645;56.968;24.196;2023-03-01T05:50:41;2.10;91.50
72604;DHT22;60645;56.968;24.196;2023-03-01T05:53:19;2.10;91.50
72604;DHT22;60645;56.968;24.196;2023-03-01T05:55:49;2.10;91.40
72604;DHT22;60645;56.968;24.196;2023-03-01T05:58:18;2.20;91.60
72604;DHT22;60645;56.968;24.196;2023-03-01T06:00:47;2.30;91.50
72604;DHT22;60645;56.968;24.196;2023-03-01T06:03:16;2.20;91.50
72604;DHT22;60645;56.968;24.196;2023-03-01T06:05:44;2.10;91.60
72604;DHT22;60645;56.968;24.196;2023-03-01T06:08:12;2.20;91.30
72604;DHT22;60645;56.968;24.196;2023-03-01T06:10:40;2.10;91.30
72604;DHT22;60645;56.968;24.196;2023-03-01T06:13:07;2.30;91.30
72604;DHT22;60645;56.968;24.196;2023-03-01T06:15:34;2.30;91.10
72604;DHT22;60645;56.968;24.196;2023-03-01T06:18:01;2.50;90.70
72604;DHT22;60645;56.968;24.196;2023-03-01T06:20:28;2.50;90.60
72604;DHT22;60645;56.968;24.196;2023-03-01T06:22:56;2.60;90.20
72604;DHT22;60645;56.968;24.196;2023-03-01T06:25:25;2.50;90.00
72604;DHT22;60645;56.968;24.196;2023-03-01T06:30:28;2.80;89.20
72604;DHT22;60645;56.968;24.196;2023-03-01T06:32:56;2.80;89.30
72604;DHT22;60645;56.968;24.196;2023-03-01T06:35:27;2.70;89.40
72604;DHT22;60645;56.968;24.196;2023-03-01T06:37:58;2.80;89.40
72604;DHT22;60645;56.968;24.196;2023-03-01T06:40:25;2.60;89.50
72604;DHT22;60645;56.968;24.196;2023-03-01T06:42:52;2.50;89.90
72604;DHT22;60645;56.968;24.196;2023-03-01T06:45:20;2.30;90.30
72604;DHT22;60645;56.968;24.196;2023-03-01T06:47:47;2.60;90.30
72604;DHT22;60645;56.968;24.196;2023-03-01T06:50:15;2.70;89.90
72604;DHT22;60645;56.968;24.196;2023-03-01T06:52:43;2.80;89.80
72604;DHT22;60645;56.968;24.196;2023-03-01T06:55:13;3.00;89.10
72604;DHT22;60645;56.968;24.196;2023-03-01T06:57:40;3.10;88.70
72604;DHT22;60645;56.968;24.196;2023-03-01T07:00:08;3.00;88.10
72604;DHT22;60645;56.968;24.196;2023-03-01T07:02:35;2.90;88.30
72604;DHT22;60645;56.968;24.196;2023-03-01T07:05:02;3.10;88.30
72604;DHT22;60645;56.968;24.196;2023-03-01T07:07:29;3.30;87.40
72604;DHT22;60645;56.968;24.196;2023-03-01T07:09:56;3.50;87.00
72604;DHT22;60645;56.968;24.196;2023-03-01T07:12:23;3.70;86.80
72604;DHT22;60645;56.968;24.196;2023-03-01T07:14:50;3.50;86.40
72604;DHT22;60645;56.968;24.196;2023-03-01T07:17:17;3.80;85.80
72604;DHT22;60645;56.968;24.196;2023-03-01T07:19:44;3.60;85.80
72604;DHT22;60645;56.968;24.196;2023-03-01T07:22:11;3.80;85.80
72604;DHT22;60645;56.968;24.196;2023-03-01T07:24:38;3.80;85.60
72604;DHT22;60645;56.968;24.196;2023-03-01T07:27:05;3.80;85.30
72604;DHT22;60645;56.968;24.196;2023-03-01T07:29:32;3.90;85.10
72604;DHT22;60645;56.968;24.196;2023-03-01T07:31:59;4.30;84.50
72604;DHT22;60645;56.968;24.196;2023-03-01T07:34:26;4.60;83.60
72604;DHT22;60645;56.968;24.196;2023-03-01T07:36:53;4.60;82.70
72604;DHT22;60645;56.968;24.196;2023-03-01T07:39:20;4.70;83.20
72604;DHT22;60645;56.968;24.196;2023-03-01T07:41:50;4.70;82.60
72604;DHT22;60645;56.968;24.196;2023-03-01T07:44:17;4.90;82.00
72604;DHT22;60645;56.968;24.196;2023-03-01T07:46:44;5.40;81.70
72604;DHT22;60645;56.968;24.196;2023-03-01T07:49:11;6.40;78.20
72604;DHT22;60645;56.968;24.196;2023-03-01T07:51:38;6.60;77.30
72604;DHT22;60645;56.968;24.196;2023-03-01T07:54:05;6.70;75.80
72604;DHT22;60645;56.968;24.196;2023-03-01T07:56:32;7.40;74.40
72604;DHT22;60645;56.968;24.196;2023-03-01T07:58:59;7.30;73.40
72604;DHT22;60645;56.968;24.196;2023-03-01T08:01:26;7.00;73.90
72604;DHT22;60645;56.968;24.196;2023-03-01T08:03:53;7.00;73.40
72604;DHT22;60645;56.968;24.196;2023-03-01T08:06:20;7.70;71.60
72604;DHT22;60645;56.968;24.196;2023-03-01T08:08:47;7.70;70.90
72604;DHT22;60645;56.968;24.196;2023-03-01T08:11:15;7.50;71.50
72604;DHT22;60645;56.968;24.196;2023-03-01T08:13:43;7.90;71.10
72604;DHT22;60645;56.968;24.196;2023-03-01T08:16:13;8.20;70.10
72604;DHT22;60645;56.968;24.196;2023-03-01T08:18:42;8.10;70.20
72604;DHT22;60645;56.968;24.196;2023-03-01T08:21:12;8.30;69.10
72604;DHT22;60645;56.968;24.196;2023-03-01T08:23:40;8.50;68.90
72604;DHT22;60645;56.968;24.196;2023-03-01T08:26:13;9.00;67.60
72604;DHT22;60645;56.968;24.196;2023-03-01T08:28:40;9.40;65.60
72604;DHT22;60645;56.968;24.196;2023-03-01T08:31:18;9.70;64.50
72604;DHT22;60645;56.968;24.196;2023-03-01T08:33:47;10.10;63.20
72604;DHT22;60645;56.968;24.196;2023-03-01T08:36:43;10.60;62.10
72604;DHT22;60645;56.968;24.196;2023-03-01T08:39:11;11.80;58.50
72604;DHT22;60645;56.968;24.196;2023-03-01T08:41:38;12.70;56.20
72604;DHT22;60645;56.968;24.196;2023-03-01T08:44:06;13.30;53.90
72604;DHT22;60645;56.968;24.196;2023-03-01T08:46:36;13.30;53.20
72604;DHT22;60645;56.968;24.196;2023-03-01T08:49:24;13.30;53.50
72604;DHT22;60645;56.968;24.196;2023-03-01T08:51:51;13.70;52.50
72604;DHT22;60645;56.968;24.196;2023-03-01T08:54:19;14.60;50.10
72604;DHT22;60645;56.968;24.196;2023-03-01T08:56:46;14.30;51.30
72604;DHT22;60645;56.968;24.196;2023-03-01T08:59:14;15.20;49.30
72604;DHT22;60645;56.968;24.196;2023-03-01T09:01:41;14.90;49.60
72604;DHT22;60645;56.968;24.196;2023-03-01T09:04:11;15.50;48.00
72604;DHT22;60645;56.968;24.196;2023-03-01T09:06:38;15.60;47.60
72604;DHT22;60645;56.968;24.196;2023-03-01T09:09:05;15.50;47.40
72604;DHT22;60645;56.968;24.196;2023-03-01T09:11:32;15.90;46.40
72604;DHT22;60645;56.968;24.196;2023-03-01T09:13:59;16.00;46.40
72604;DHT22;60645;56.968;24.196;2023-03-01T09:16:26;16.00;46.20
72604;DHT22;60645;56.968;24.196;2023-03-01T09:18:54;16.00;45.90
72604;DHT22;60645;56.968;24.196;2023-03-01T09:21:21;16.50;45.10
72604;DHT22;60645;56.968;24.196;2023-03-01T09:24:05;17.20;44.40
72604;DHT22;60645;56.968;24.196;2023-03-01T09:26:32;17.30;43.70
72604;DHT22;60645;56.968;24.196;2023-03-01T09:28:59;17.60;42.40
72604;DHT22;60645;56.968;24.196;2023-03-01T09:31:26;17.80;42.40
72604;DHT22;60645;56.968;24.196;2023-03-01T09:33:53;18.10;41.90
72604;DHT22;60645;56.968;24.196;2023-03-01T09:36:21;18.40;41.00
72604;DHT22;60645;56.968;24.196;2023-03-01T09:38:48;18.50;40.60
72604;DHT22;60645;56.968;24.196;2023-03-01T09:47:12;18.60;40.30
72604;DHT22;60645;56.968;24.196;2023-03-01T09:49:43;18.80;39.80
72604;DHT22;60645;56.968;24.196;2023-03-01T09:54:52;18.40;40.00
72604;DHT22;60645;56.968;24.196;2023-03-01T09:57:28;18.70;39.30
72604;DHT22;60645;56.968;24.196;2023-03-01T10:05:14;18.30;39.30
72604;DHT22;60645;56.968;24.196;2023-03-01T10:07:49;17.40;40.80
72604;DHT22;60645;56.968;24.196;2023-03-01T10:13:17;15.00;44.40
72604;DHT22;60645;56.968;24.196;2023-03-01T10:15:50;12.30;49.70
72604;DHT22;60645;56.968;24.196;2023-03-01T10:18:26;9.00;57.60
72604;DHT22;60645;56.968;24.196;2023-03-01T10:21:00;9.10;57.80
72604;DHT22;60645;56.968;24.196;2023-03-01T10:23:31;8.50;58.80
72604;DHT22;60645;56.968;24.196;2023-03-01T10:26:20;7.80;60.30
72604;DHT22;60645;56.968;24.196;2023-03-01T10:31:31;7.30;62.30
72604;DHT22;60645;56.968;24.196;2023-03-01T10:36:39;6.80;64.20
72604;DHT22;60645;56.968;24.196;2023-03-01T10:39:17;6.50;66.20
72604;DHT22;60645;56.968;24.196;2023-03-01T10:52:25;6.30;66.30
72604;DHT22;60645;56.968;24.196;2023-03-01T10:55:02;5.90;66.70
72604;DHT22;60645;56.968;24.196;2023-03-01T10:57:34;5.60;68.30
72604;DHT22;60645;56.968;24.196;2023-03-01T11:02:39;5.50;68.20
72604;DHT22;60645;56.968;24.196;2023-03-01T11:07:53;5.50;68.50
72604;DHT22;60645;56.968;24.196;2023-03-01T11:10:24;5.50;69.00
72604;DHT22;60645;56.968;24.196;2023-03-01T11:12:53;5.60;69.20
72604;DHT22;60645;56.968;24.196;2023-03-01T11:15:26;5.60;68.80
72604;DHT22;60645;56.968;24.196;2023-03-01T11:17:55;5.60;69.60
72604;DHT22;60645;56.968;24.196;2023-03-01T11:20:35;5.30;70.10
72604;DHT22;60645;56.968;24.196;2023-03-01T11:23:05;5.20;71.10
72604;DHT22;60645;56.968;24.196;2023-03-01T11:26:14;5.40;70.90
72604;DHT22;60645;56.968;24.196;2023-03-01T11:28:42;5.50;70.40
72604;DHT22;60645;56.968;24.196;2023-03-01T11:31:12;5.30;70.50
72604;DHT22;60645;56.968;24.196;2023-03-01T11:33:47;5.20;71.00
72604;DHT22;60645;56.968;24.196;2023-03-01T11:36:21;5.20;71.50
72604;DHT22;60645;56.968;24.196;2023-03-01T11:38:51;5.30;71.30
72604;DHT22;60645;56.968;24.196;2023-03-01T11:41:31;5.30;69.60
72604;DHT22;60645;56.968;24.196;2023-03-01T11:44:20;5.20;69.60
72604;DHT22;60645;56.968;24.196;2023-03-01T11:47:17;5.40;68.90
72604;DHT22;60645;56.968;24.196;2023-03-01T11:49:59;5.20;68.50
72604;DHT22;60645;56.968;24.196;2023-03-01T12:01:06;5.00;70.20
72604;DHT22;60645;56.968;24.196;2023-03-01T12:06:41;5.00;70.30
72604;DHT22;60645;56.968;24.196;2023-03-01T12:12:07;5.20;70.20
72604;DHT22;60645;56.968;24.196;2023-03-01T12:29:19;5.30;68.10
72604;DHT22;60645;56.968;24.196;2023-03-01T12:40:02;14.40;45.40
72604;DHT22;60645;56.968;24.196;2023-03-01T12:50:37;19.60;36.70
72604;DHT22;60645;56.968;24.196;2023-03-01T12:53:05;19.70;36.20
72604;DHT22;60645;56.968;24.196;2023-03-01T12:55:39;20.10;35.80
72604;DHT22;60645;56.968;24.196;2023-03-01T13:04:02;21.20;34.40
72604;DHT22;60645;56.968;24.196;2023-03-01T13:11:41;21.20;34.00
72604;DHT22;60645;56.968;24.196;2023-03-01T13:16:47;21.30;33.70
72604;DHT22;60645;56.968;24.196;2023-03-01T13:19:16;20.70;34.20
72604;DHT22;60645;56.968;24.196;2023-03-01T13:21:44;20.20;34.70
72604;DHT22;60645;56.968;24.196;2023-03-01T13:24:27;20.60;34.10
72604;DHT22;60645;56.968;24.196;2023-03-01T13:27:37;19.90;34.40
72604;DHT22;60645;56.968;24.196;2023-03-01T13:32:21;20.00;34.50
72604;DHT22;60645;56.968;24.196;2023-03-01T13:35:06;20.00;34.50
72604;DHT22;60645;56.968;24.196;2023-03-01T13:37:49;18.90;35.00
72604;DHT22;60645;56.968;24.196;2023-03-01T13:42:45;13.80;40.40
72604;DHT22;60645;56.968;24.196;2023-03-01T13:48:02;9.00;48.60
72604;DHT22;60645;56.968;24.196;2023-03-01T13:50:33;7.70;51.60
72604;DHT22;60645;56.968;24.196;2023-03-01T13:53:05;7.00;53.00
72604;DHT22;60645;56.968;24.196;2023-03-01T13:55:40;6.50;55.40
72604;DHT22;60645;56.968;24.196;2023-03-01T13:58:30;6.00;56.10
72604;DHT22;60645;56.968;24.196;2023-03-01T14:01:01;5.50;57.30
72604;DHT22;60645;56.968;24.196;2023-03-01T14:03:30;5.30;58.00
72604;DHT22;60645;56.968;24.196;2023-03-01T14:06:05;5.10;58.50
72604;DHT22;60645;56.968;24.196;2023-03-01T14:08:42;4.70;60.20
72604;DHT22;60645;56.968;24.196;2023-03-01T14:19:36;4.60;61.30
72604;DHT22;60645;56.968;24.196;2023-03-01T14:25:20;4.50;62.20
72604;DHT22;60645;56.968;24.196;2023-03-01T14:27:59;4.30;61.80
72604;DHT22;60645;56.968;24.196;2023-03-01T14:30:42;4.40;61.90
72604;DHT22;60645;56.968;24.196;2023-03-01T14:33:20;4.40;62.20
72604;DHT22;60645;56.968;24.196;2023-03-01T14:35:57;4.50;62.50
72604;DHT22;60645;56.968;24.196;2023-03-01T14:38:46;4.20;62.10
72604;DHT22;60645;56.968;24.196;2023-03-01T14:41:25;4.30;63.30
72604;DHT22;60645;56.968;24.196;2023-03-01T14:43:56;4.30;63.00
72604;DHT22;60645;56.968;24.196;2023-03-01T14:46:40;4.10;63.30
72604;DHT22;60645;56.968;24.196;2023-03-01T14:49:15;4.20;63.60
72604;DHT22;60645;56.968;24.196;2023-03-01T14:52:16;4.10;64.30
72604;DHT22;60645;56.968;24.196;2023-03-01T14:54:59;4.00;63.80
72604;DHT22;60645;56.968;24.196;2023-03-01T14:57:27;4.10;64.60
72604;DHT22;60645;56.968;24.196;2023-03-01T14:59:59;4.20;64.20
72604;DHT22;60645;56.968;24.196;2023-03-01T15:02:31;4.10;64.00
72604;DHT22;60645;56.968;24.196;2023-03-01T15:05:03;3.80;64.70
72604;DHT22;60645;56.968;24.196;2023-03-01T15:07:37;4.00;65.20
72604;DHT22;60645;56.968;24.196;2023-03-01T15:10:11;4.00;65.40
72604;DHT22;60645;56.968;24.196;2023-03-01T15:12:41;3.90;65.80
72604;DHT22;60645;56.968;24.196;2023-03-01T15:18:02;3.80;65.90
72604;DHT22;60645;56.968;24.196;2023-03-01T15:20:30;3.80;66.30
72604;DHT22;60645;56.968;24.196;2023-03-01T15:23:02;3.60;67.20
72604;DHT22;60645;56.968;24.196;2023-03-01T15:25:31;3.70;67.50
72604;DHT22;60645;56.968;24.196;2023-03-01T15:28:01;3.90;66.90
72604;DHT22;60645;56.968;24.196;2023-03-01T15:30:33;3.70;67.40
72604;DHT22;60645;56.968;24.196;2023-03-01T15:33:28;3.80;67.60
72604;DHT22;60645;56.968;24.196;2023-03-01T15:35:57;3.80;68.00
72604;DHT22;60645;56.968;24.196;2023-03-01T15:38:36;3.90;68.00
72604;DHT22;60645;56.968;24.196;2023-03-01T15:41:28;3.80;68.40
72604;DHT22;60645;56.968;24.196;2023-03-01T15:44:13;3.80;68.40
72604;DHT22;60645;56.968;24.196;2023-03-01T15:46:45;3.90;67.80
72604;DHT22;60645;56.968;24.196;2023-03-01T15:49:27;3.90;68.30
72604;DHT22;60645;56.968;24.196;2023-03-01T15:51:57;3.80;68.50
72604;DHT22;60645;56.968;24.196;2023-03-01T15:54:26;3.70;67.80
72604;DHT22;60645;56.968;24.196;2023-03-01T15:56:54;3.90;68.40
72604;DHT22;60645;56.968;24.196;2023-03-01T15:59:21;3.90;67.80
72604;DHT22;60645;56.968;24.196;2023-03-01T16:01:49;4.10;68.10
72604;DHT22;60645;56.968;24.196;2023-03-01T16:04:18;3.90;68.00
72604;DHT22;60645;56.968;24.196;2023-03-01T16:06:51;4.00;68.30
72604;DHT22;60645;56.968;24.196;2023-03-01T16:09:25;4.00;68.30
72604;DHT22;60645;56.968;24.196;2023-03-01T16:11:53;3.90;68.70
72604;DHT22;60645;56.968;24.196;2023-03-01T16:14:21;3.70;68.80
72604;DHT22;60645;56.968;24.196;2023-03-01T16:16:48;3.90;68.90
72604;DHT22;60645;56.968;24.196;2023-03-01T16:19:16;3.70;69.20
72604;DHT22;60645;56.968;24.196;2023-03-01T16:21:43;3.80;69.00
72604;DHT22;60645;56.968;24.196;2023-03-01T16:24:13;3.60;69.80
72604;DHT22;60645;56.968;24.196;2023-03-01T16:26:40;3.60;69.50
72604;DHT22;60645;56.968;24.196;2023-03-01T16:29:09;3.50;70.40
72604;DHT22;60645;56.968;24.196;2023-03-01T16:31:36;3.40;70.70
72604;DHT22;60645;56.968;24.196;2023-03-01T16:34:03;3.20;70.60
72604;DHT22;60645;56.968;24.196;2023-03-01T16:36:30;3.10;71.00
72604;DHT22;60645;56.968;24.196;2023-03-01T16:38:59;3.00;71.80
72604;DHT22;60645;56.968;24.196;2023-03-01T16:41:27;2.90;71.90
72604;DHT22;60645;56.968;24.196;2023-03-01T16:43:54;3.00;72.40
72604;DHT22;60645;56.968;24.196;2023-03-01T16:46:24;2.90;72.10
72604;DHT22;60645;56.968;24.196;2023-03-01T16:48:51;3.00;71.80
72604;DHT22;60645;56.968;24.196;2023-03-01T16:51:20;3.00;72.30
72604;DHT22;60645;56.968;24.196;2023-03-01T16:53:48;2.90;72.90
72604;DHT22;60645;56.968;24.196;2023-03-01T16:56:15;3.00;72.70
72604;DHT22;60645;56.968;24.196;2023-03-01T16:58:43;2.70;72.70
72604;DHT22;60645;56.968;24.196;2023-03-01T17:01:20;2.60;73.20
72604;DHT22;60645;56.968;24.196;2023-03-01T17:03:51;2.80;73.20
72604;DHT22;60645;56.968;24.196;2023-03-01T17:06:20;2.60;73.20
72604;DHT22;60645;56.968;24.196;2023-03-01T17:08:48;2.50;73.90
72604;DHT22;60645;56.968;24.196;2023-03-01T17:11:17;2.50;74.60
72604;DHT22;60645;56.968;24.196;2023-03-01T17:13:45;2.50;74.90
72604;DHT22;60645;56.968;24.196;2023-03-01T17:16:15;2.40;75.30
72604;DHT22;60645;56.968;24.196;2023-03-01T17:18:43;2.60;75.70
72604;DHT22;60645;56.968;24.196;2023-03-01T17:21:11;2.40;76.00
72604;DHT22;60645;56.968;24.196;2023-03-01T17:23:40;2.30;76.50
72604;DHT22;60645;56.968;24.196;2023-03-01T17:26:08;2.30;77.20
72604;DHT22;60645;56.968;24.196;2023-03-01T17:28:36;2.20;77.40
72604;DHT22;60645;56.968;24.196;2023-03-01T17:31:05;2.20;77.80
72604;DHT22;60645;56.968;24.196;2023-03-01T17:33:32;2.10;78.30
72604;DHT22;60645;56.968;24.196;2023-03-01T17:35:59;2.00;78.60
72604;DHT22;60645;56.968;24.196;2023-03-01T17:38:27;2.20;78.70
72604;DHT22;60645;56.968;24.196;2023-03-01T17:40:54;2.10;78.40
72604;DHT22;60645;56.968;24.196;2023-03-01T17:43:21;2.10;78.50
72604;DHT22;60645;56.968;24.196;2023-03-01T17:45:48;2.30;78.40
72604;DHT22;60645;56.968;24.196;2023-03-01T17:48:17;2.30;78.10
72604;DHT22;60645;56.968;24.196;2023-03-01T17:50:44;2.30;78.10
72604;DHT22;60645;56.968;24.196;2023-03-01T17:53:11;2.20;78.30
72604;DHT22;60645;56.968;24.196;2023-03-01T17:55:40;2.20;78.30
72604;DHT22;60645;56.968;24.196;2023-03-01T17:58:09;2.20;78.50
72604;DHT22;60645;56.968;24.196;2023-03-01T18:00:37;2.20;77.90
72604;DHT22;60645;56.968;24.196;2023-03-01T18:03:05;2.50;77.70
72604;DHT22;60645;56.968;24.196;2023-03-01T18:05:33;2.50;77.70
72604;DHT22;60645;56.968;24.196;2023-03-01T18:08:00;2.50;77.90